Time;durP1;ratioP1;P1;durP2;ratioP2;P2;SDS_P1;SDS_P2;PMS_P1;PMS_P2;Temp;Humidity;BMP_temperature;BMP_pressure;BME280_temperature;BME280_humidity;BME280_pressure;Samples;Min_cycle;Max_cycle;Signal;HPM_P1;HPM_P2
2021/03/04 00:00:34;;;;;;;58.30;33.80;;;7.00;83.60;;;;;;5063685;28;20056;-87
2021/03/04 00:03:01;;;;;;;62.45;36.58;;;6.90;83.80;;;;;;5077080;28;20008;-85
2021/03/04 00:05:26;;;;;;;63.17;33.63;;;6.90;83.90;;;;;;5080796;28;20029;-87
2021/03/04 00:07:52;;;;;;;63.93;34.67;;;6.90;83.80;;;;;;5081321;28;20017;-85
2021/03/04 00:10:20;;;;;;;62.27;34.00;;;6.90;83.90;;;;;;5098160;28;20016;-85
2021/03/04 00:12:48;;;;;;;69.73;35.10;;;6.80;84.10;;;;;;5096700;28;20096;-87
2021/03/04 00:15:16;;;;;;;65.20;35.10;;;6.80;84.10;;;;;;5059660;28;20028;-86
2021/03/04 00:17:42;;;;;;;59.57;34.13;;;6.80;84.10;;;;;;5077445;28;20035;-85
2021/03/04 00:20:10;;;;;;;60.40;34.00;;;6.80;84.30;;;;;;5059053;28;20037;-88
2021/03/04 00:22:36;;;;;;;61.43;33.70;;;6.80;84.20;;;;;;5060055;28;20021;-88
2021/03/04 00:25:04;;;;;;;61.73;35.33;;;6.80;84.20;;;;;;5060017;28;20517;-88
2021/03/04 00:27:29;;;;;;;60.73;34.87;;;6.80;84.00;;;;;;5060549;28;20017;-86
2021/03/04 00:29:55;;;;;;;59.60;33.53;;;6.70;84.00;;;;;;5060484;28;20123;-86
2021/03/04 00:32:21;;;;;;;60.63;33.40;;;6.70;84.10;;;;;;5078453;28;20021;-89
2021/03/04 00:34:46;;;;;;;63.77;33.57;;;6.70;84.10;;;;;;5077692;28;20054;-87
2021/03/04 00:37:12;;;;;;;64.50;35.40;;;6.50;84.30;;;;;;5060285;28;20048;-87
2021/03/04 00:39:37;;;;;;;63.13;33.93;;;6.50;84.50;;;;;;5078186;28;20119;-87
2021/03/04 00:42:04;;;;;;;65.10;36.50;;;6.50;84.60;;;;;;5060433;28;20029;-87
2021/03/04 00:44:29;;;;;;;65.07;35.00;;;6.50;84.60;;;;;;5077868;28;20425;-86
2021/03/04 00:46:55;;;;;;;66.97;36.80;;;6.50;84.60;;;;;;5060784;28;20028;-88
2021/03/04 00:49:21;;;;;;;63.07;35.83;;;6.50;84.60;;;;;;5077384;28;20061;-87
2021/03/04 00:51:46;;;;;;;63.23;34.30;;;6.50;84.40;;;;;;5060742;28;20025;-87
2021/03/04 00:54:12;;;;;;;57.80;33.47;;;6.60;84.40;;;;;;5077975;28;20028;-86
2021/03/04 00:56:37;;;;;;;60.73;32.80;;;6.60;84.10;;;;;;5045697;28;20489;-85
2021/03/04 00:59:03;;;;;;;59.50;33.23;;;6.60;84.00;;;;;;5040134;28;20371;-86
2021/03/04 01:01:29;;;;;;;59.47;32.23;;;6.60;84.00;;;;;;5039270;28;20067;-87
2021/03/04 01:03:54;;;;;;;64.00;33.53;;;6.60;84.00;;;;;;5038553;28;20033;-85
2021/03/04 01:06:20;;;;;;;58.60;32.30;;;6.50;83.80;;;;;;5038563;28;20025;-86
2021/03/04 01:08:47;;;;;;;62.60;32.23;;;6.50;84.10;;;;;;5039350;28;20075;-87
2021/03/04 01:11:17;;;;;;;60.97;33.07;;;6.50;84.10;;;;;;5057746;28;20109;-86
2021/03/04 01:13:43;;;;;;;;;;;6.40;84.20;;;;;;5058101;28;20452;-89
2021/03/04 01:16:08;;;;;;;60.07;31.80;;;6.40;84.60;;;;;;5038788;28;20286;-87
2021/03/04 01:18:34;;;;;;;62.23;35.23;;;6.30;84.40;;;;;;5040164;28;20100;-86
2021/03/04 01:21:00;;;;;;;64.00;33.33;;;6.40;84.40;;;;;;5039026;28;20093;-85
2021/03/04 01:23:26;;;;;;;63.90;34.13;;;6.50;83.90;;;;;;5039041;28;20021;-87
2021/03/04 01:25:52;;;;;;;64.23;33.17;;;6.40;84.00;;;;;;5038299;28;20036;-86
2021/03/04 01:28:17;;;;;;;63.57;32.63;;;6.40;84.00;;;;;;5038963;28;20021;-87
2021/03/04 01:30:43;;;;;;;64.23;34.57;;;6.40;84.00;;;;;;5039246;28;20032;-88
2021/03/04 01:33:09;;;;;;;64.87;33.93;;;6.40;84.70;;;;;;5039695;28;20116;-87
2021/03/04 01:35:35;;;;;;;66.73;34.47;;;6.40;84.10;;;;;;5040127;28;20033;-86
2021/03/04 01:38:00;;;;;;;68.10;34.53;;;6.40;84.10;;;;;;5040125;28;20028;-87
2021/03/04 01:40:26;;;;;;;65.83;33.60;;;6.40;84.00;;;;;;5039925;28;20025;-85
2021/03/04 01:42:52;;;;;;;71.03;38.13;;;6.40;83.90;;;;;;5039560;28;20048;-87
2021/03/04 01:45:18;;;;;;;71.33;36.40;;;6.50;84.20;;;;;;5039808;28;20028;-88
2021/03/04 01:47:50;;;;;;;67.30;36.43;;;6.50;83.90;;;;;;5056927;28;20021;-86
2021/03/04 01:50:17;;;;;;;72.23;38.13;;;6.50;83.90;;;;;;5039331;28;20509;-86
2021/03/04 01:52:44;;;;;;;69.57;37.07;;;6.40;84.50;;;;;;5038572;28;20029;-86
2021/03/04 01:55:11;;;;;;;70.17;35.07;;;6.40;83.90;;;;;;5037432;28;20028;-86
2021/03/04 01:57:38;;;;;;;73.77;35.60;;;6.40;84.00;;;;;;5054921;28;20025;-86
2021/03/04 02:00:08;;;;;;;70.70;36.83;;;6.40;84.00;;;;;;5054757;28;20438;-86
2021/03/04 02:02:34;;;;;;;76.57;37.57;;;6.40;84.10;;;;;;5075353;28;20046;-87
2021/03/04 02:04:59;;;;;;;70.30;35.07;;;6.30;84.10;;;;;;5058695;28;20017;-86
2021/03/04 02:07:47;;;;;;;77.73;37.77;;;6.30;84.10;;;;;;5058080;28;20027;-86
2021/03/04 02:10:32;;;;;;;82.67;38.13;;;6.30;84.10;;;;;;5058293;28;20440;-87
2021/03/04 02:13:15;;;;;;;74.37;36.03;;;6.30;84.10;;;;;;5059042;28;20020;-86
2021/03/04 02:16:01;;;;;;;78.20;37.10;;;6.30;84.10;;;;;;5061792;28;20481;-87
2021/03/04 02:18:30;;;;;;;76.30;36.83;;;6.30;84.10;;;;;;5079812;28;20017;-85
2021/03/04 02:21:08;;;;;;;78.25;38.38;;;6.30;84.10;;;;;;5080073;28;20029;-85
2021/03/04 02:23:42;;;;;;;80.13;38.33;;;6.30;84.30;;;;;;5061533;28;20545;-86
2021/03/04 02:26:32;;;;;;;79.87;38.53;;;6.30;84.20;;;;;;5062057;28;20021;-85
2021/03/04 02:29:00;;;;;;;79.07;37.53;;;6.30;84.10;;;;;;5080171;28;20033;-86
2021/03/04 02:31:30;;;;;;;79.90;38.47;;;6.30;84.10;;;;;;5061160;28;20052;-86
2021/03/04 02:33:58;;;;;;;72.33;36.17;;;6.30;84.00;;;;;;5061677;28;20060;-87
2021/03/04 02:36:25;;;;;;;72.90;35.23;;;6.30;83.90;;;;;;5061696;28;20135;-88
2021/03/04 02:38:51;;;;;;;74.03;36.87;;;6.40;83.80;;;;;;5061900;28;20020;-86
2021/03/04 02:41:18;;;;;;;75.23;36.63;;;6.40;83.90;;;;;;5061949;28;20024;-86
2021/03/04 02:43:45;;;;;;;72.97;35.07;;;6.30;83.90;;;;;;5061729;28;20020;-88
2021/03/04 02:46:11;;;;;;;68.47;34.00;;;6.30;84.00;;;;;;5061524;28;20017;-86
2021/03/04 02:48:37;;;;;;;64.73;33.00;;;6.30;84.30;;;;;;5080017;28;20028;-87
2021/03/04 02:51:04;;;;;;;73.67;35.73;;;6.30;84.00;;;;;;5061606;28;20395;-86
2021/03/04 02:53:30;;;;;;;72.50;31.93;;;6.20;84.30;;;;;;5061981;28;20039;-87
2021/03/04 02:55:57;;;;;;;70.67;33.77;;;6.20;84.20;;;;;;5052826;28;20029;-87
2021/03/04 02:58:24;;;;;;;71.40;34.90;;;6.20;84.30;;;;;;5042650;28;20025;-87
2021/03/04 03:00:50;;;;;;;72.43;33.30;;;6.20;84.20;;;;;;5061268;28;20021;-86
2021/03/04 03:03:17;;;;;;;70.37;34.40;;;6.20;84.30;;;;;;5043235;28;20071;-86
2021/03/04 03:05:45;;;;;;;72.33;32.77;;;6.20;84.20;;;;;;5041871;28;20057;-87
2021/03/04 03:08:15;;;;;;;71.47;33.10;;;6.20;84.30;;;;;;5043163;28;20037;-87
2021/03/04 03:10:43;;;;;;;71.60;33.73;;;6.20;84.30;;;;;;5041074;28;20024;-89
2021/03/04 03:13:09;;;;;;;70.63;31.17;;;6.20;84.30;;;;;;5040592;28;20409;-87
2021/03/04 03:15:35;;;;;;;69.73;33.67;;;6.10;84.60;;;;;;5041463;28;20036;-89
2021/03/04 03:18:00;;;;;;;68.47;31.30;;;6.10;84.50;;;;;;5041925;28;20387;-89
2021/03/04 03:20:26;;;;;;;66.87;30.90;;;6.10;84.50;;;;;;5064036;28;20433;-86
2021/03/04 03:22:53;;;;;;;70.50;32.73;;;6.10;84.40;;;;;;5057909;28;20021;-83
2021/03/04 03:25:19;;;;;;;64.73;29.90;;;6.10;84.60;;;;;;5055623;28;20025;-83
2021/03/04 03:27:45;;;;;;;64.20;29.47;;;6.10;84.80;;;;;;5058574;28;20115;-83
2021/03/04 03:30:18;;;;;;;56.77;28.73;;;6.10;84.90;;;;;;5056272;28;20051;-86
2021/03/04 03:32:52;;;;;;;63.30;30.23;;;6.10;84.60;;;;;;5044135;28;20033;-87
2021/03/04 03:35:19;;;;;;;62.13;26.53;;;6.10;84.60;;;;;;5042003;28;20390;-87
2021/03/04 03:37:45;;;;;;;59.73;28.37;;;6.10;84.50;;;;;;5041505;28;20557;-84
2021/03/04 03:40:14;;;;;;;63.07;27.20;;;6.10;84.40;;;;;;5041704;28;20478;-86
2021/03/04 03:42:40;;;;;;;51.00;25.23;;;6.10;84.50;;;;;;5041335;28;20021;-84
2021/03/04 03:45:07;;;;;;;56.33;25.57;;;6.10;84.50;;;;;;5041202;28;20021;-87
2021/03/04 03:47:35;;;;;;;52.17;24.70;;;6.00;84.60;;;;;;5042486;28;20053;-85
2021/03/04 03:50:02;;;;;;;58.40;26.87;;;5.90;84.80;;;;;;5059508;28;20457;-87
2021/03/04 03:52:30;;;;;;;52.57;25.50;;;5.90;85.00;;;;;;5041178;28;20028;-86
2021/03/04 03:54:57;;;;;;;56.93;27.33;;;5.90;85.10;;;;;;5058967;28;20027;-86
2021/03/04 03:57:26;;;;;;;58.57;27.50;;;5.90;85.00;;;;;;5040913;28;20029;-85
2021/03/04 03:59:52;;;;;;;54.43;25.30;;;5.90;85.10;;;;;;5041258;28;20029;-86
2021/03/04 04:02:18;;;;;;;59.23;28.43;;;5.90;85.10;;;;;;5041091;28;20028;-85
2021/03/04 04:04:44;;;;;;;59.80;26.90;;;5.90;85.10;;;;;;5040829;28;20005;-86
2021/03/04 04:07:12;;;;;;;61.97;28.00;;;5.90;85.00;;;;;;5058822;28;20017;-87
2021/03/04 04:09:38;;;;;;;65.40;29.73;;;5.90;85.00;;;;;;5039538;28;20029;-86
2021/03/04 04:12:04;;;;;;;61.97;29.50;;;5.90;84.80;;;;;;5039143;28;20116;-87
2021/03/04 04:14:30;;;;;;;63.70;29.07;;;5.90;84.70;;;;;;5056775;28;20490;-86
2021/03/04 04:16:56;;;;;;;60.73;28.20;;;5.90;84.90;;;;;;5039542;28;20070;-85
2021/03/04 04:19:22;;;;;;;61.20;28.40;;;5.90;84.80;;;;;;5039930;28;20048;-86
2021/03/04 04:21:48;;;;;;;62.47;27.27;;;5.90;84.80;;;;;;5059028;28;20032;-86
2021/03/04 04:24:14;;;;;;;63.17;27.53;;;5.90;84.70;;;;;;5042170;28;20045;-86
2021/03/04 04:26:40;;;;;;;67.10;29.67;;;5.90;84.80;;;;;;5043151;28;20044;-85
2021/03/04 04:29:05;;;;;;;65.50;28.40;;;5.90;84.80;;;;;;5041680;28;20048;-85
2021/03/04 04:31:34;;;;;;;70.90;30.53;;;5.90;84.90;;;;;;5042355;28;20029;-86
2021/03/04 04:33:59;;;;;;;69.18;29.90;;;5.90;84.90;;;;;;5041861;28;20179;-83
2021/03/04 04:36:25;;;;;;;63.87;27.37;;;5.80;84.90;;;;;;5058480;28;20522;-85
2021/03/04 04:38:50;;;;;;;64.90;29.57;;;5.80;84.90;;;;;;5041578;28;20052;-84
2021/03/04 04:41:16;;;;;;;57.67;25.97;;;5.80;85.00;;;;;;5041775;28;20387;-83
2021/03/04 04:43:42;;;;;;;65.57;27.43;;;5.80;85.00;;;;;;5041547;28;20025;-84
2021/03/04 04:46:08;;;;;;;54.50;24.23;;;5.80;84.90;;;;;;5059978;28;20028;-85
2021/03/04 04:48:33;;;;;;;48.43;20.80;;;5.80;84.80;;;;;;5060961;28;20021;-83
2021/03/04 04:50:59;;;;;;;49.73;22.37;;;5.90;84.70;;;;;;5042735;28;20462;-86
2021/03/04 04:53:24;;;;;;;49.10;23.67;;;5.80;84.70;;;;;;5042970;28;20470;-85
2021/03/04 04:55:50;;;;;;;49.03;22.67;;;5.70;84.90;;;;;;5060355;28;20013;-85
2021/03/04 04:58:16;;;;;;;46.57;21.43;;;5.70;85.20;;;;;;5041916;28;20462;-85
2021/03/04 05:00:41;;;;;;;46.17;21.67;;;5.70;85.20;;;;;;5041409;28;20033;-85
2021/03/04 05:03:07;;;;;;;49.30;22.70;;;5.70;85.20;;;;;;5040435;28;20048;-86
2021/03/04 05:05:32;;;;;;;51.80;24.00;;;5.60;85.20;;;;;;5058158;28;20025;-86
2021/03/04 05:07:58;;;;;;;50.10;22.90;;;5.60;85.10;;;;;;5040208;28;20060;-85
2021/03/04 05:10:24;;;;;;;54.90;23.63;;;5.60;85.20;;;;;;5041771;28;20086;-86
2021/03/04 05:12:49;;;;;;;48.93;22.90;;;5.60;85.10;;;;;;5041559;28;20025;-86
2021/03/04 05:15:15;;;;;;;50.87;22.90;;;5.60;85.20;;;;;;5058980;28;20037;-85
2021/03/04 05:17:40;;;;;;;55.50;24.17;;;5.60;85.10;;;;;;5041735;28;20424;-85
2021/03/04 05:20:07;;;;;;;53.47;24.40;;;5.60;85.10;;;;;;5042205;28;20033;-85
2021/03/04 05:22:33;;;;;;;54.97;23.20;;;5.50;85.30;;;;;;5058564;28;20385;-86
2021/03/04 05:25:00;;;;;;;53.80;23.80;;;5.50;85.30;;;;;;5057804;28;20118;-86
2021/03/04 05:27:26;;;;;;;58.63;25.67;;;5.50;85.40;;;;;;5039877;28;20466;-86
2021/03/04 05:29:52;;;;;;;56.83;23.93;;;5.50;85.50;;;;;;5041434;28;20066;-85
2021/03/04 05:32:18;;;;;;;56.80;24.67;;;5.50;85.40;;;;;;5042168;28;20081;-85
2021/03/04 05:34:44;;;;;;;56.10;25.07;;;5.50;85.40;;;;;;5042261;28;20025;-85
2021/03/04 05:37:10;;;;;;;53.23;22.70;;;5.50;85.40;;;;;;5042841;28;20132;-85
2021/03/04 05:39:36;;;;;;;56.63;24.70;;;5.50;85.40;;;;;;5042374;28;20079;-86
2021/03/04 05:42:05;;;;;;;55.97;24.03;;;5.50;85.40;;;;;;5041909;28;20698;-85
2021/03/04 05:44:31;;;;;;;57.30;24.57;;;5.50;85.50;;;;;;5060249;28;20359;-85
2021/03/04 05:46:57;;;;;;;54.87;23.80;;;5.50;85.50;;;;;;5059843;28;20021;-85
2021/03/04 05:49:28;;;;;;;56.20;24.47;;;5.50;85.50;;;;;;5045754;28;20117;-86
2021/03/04 05:51:56;;;;;;;58.70;25.37;;;5.50;85.50;;;;;;5044286;28;20048;-86
2021/03/04 05:54:22;;;;;;;59.90;25.80;;;5.50;85.80;;;;;;5045278;28;20028;-85
2021/03/04 05:56:49;;;;;;;57.00;25.10;;;5.50;85.70;;;;;;5063457;28;20112;-85
2021/03/04 05:59:15;;;;;;;62.07;26.67;;;5.50;86.10;;;;;;5044890;28;20025;-86
2021/03/04 06:01:42;;;;;;;60.20;24.63;;;5.60;86.30;;;;;;5043370;28;20120;-86
2021/03/04 06:04:09;;;;;;;59.43;25.73;;;5.60;85.30;;;;;;5061249;28;20067;-87
2021/03/04 06:06:35;;;;;;;59.87;26.23;;;5.50;85.40;;;;;;5044005;28;20438;-87
2021/03/04 06:09:01;;;;;;;59.37;23.67;;;5.60;85.30;;;;;;5043583;28;20063;-85
2021/03/04 06:11:27;;;;;;;58.27;23.27;;;5.60;85.30;;;;;;5063713;28;20143;-85
2021/03/04 06:13:53;;;;;;;55.67;24.73;;;5.60;85.30;;;;;;5045604;28;20439;-85
2021/03/04 06:16:20;;;;;;;51.03;22.27;;;5.60;85.20;;;;;;5064132;28;20029;-87
2021/03/04 06:18:45;;;;;;;56.07;23.60;;;5.60;85.30;;;;;;5063552;28;20025;-85
2021/03/04 06:21:22;;;;;;;51.87;22.50;;;5.60;85.20;;;;;;5064216;28;20034;-87
2021/03/04 06:23:48;;;;;;;55.23;24.60;;;5.50;85.30;;;;;;5063429;28;20042;-87
2021/03/04 06:26:37;;;;;;;48.07;21.37;;;5.50;85.50;;;;;;5064022;28;20076;-85
2021/03/04 06:29:12;;;;;;;53.67;22.55;;;5.50;85.50;;;;;;5044542;28;20033;-87
2021/03/04 06:31:38;;;;;;;52.73;22.20;;;5.50;85.50;;;;;;5044842;28;20485;-87
2021/03/04 06:34:21;;;;;;;53.47;24.23;;;5.50;85.30;;;;;;5044022;28;20025;-89
2021/03/04 06:37:03;;;;;;;53.27;22.60;;;5.50;85.50;;;;;;5052279;28;20104;-91
2021/03/04 06:39:43;;;;;;;52.83;22.97;;;5.50;85.50;;;;;;5071282;28;20040;-89
2021/03/04 06:42:10;;;;;;;56.43;24.27;;;5.50;85.40;;;;;;5080135;28;20035;-90
2021/03/04 06:44:39;;;;;;;55.33;22.30;;;5.50;85.40;;;;;;5074877;28;20042;-89
2021/03/04 06:47:06;;;;;;;;;;;5.50;85.40;;;;;;5073660;28;20037;-91
2021/03/04 06:49:42;;;;;;;47.00;20.10;;;5.50;85.50;;;;;;5067853;28;19932;-90
2021/03/04 06:52:08;;;;;;;52.93;23.47;;;5.40;85.60;;;;;;5063247;28;20525;-87
2021/03/04 06:54:35;;;;;;;48.70;21.13;;;5.40;85.50;;;;;;5066289;28;20116;-86
2021/03/04 06:57:11;;;;;;;46.33;19.80;;;5.50;85.60;;;;;;5065811;28;20032;-88
2021/03/04 06:59:44;;;;;;;47.77;20.87;;;5.40;85.50;;;;;;5064073;28;20021;-85
2021/03/04 07:02:25;;;;;;;44.90;21.07;;;5.40;86.00;;;;;;5063548;28;20393;-85
2021/03/04 07:04:59;;;;;;;50.03;21.73;;;5.40;85.70;;;;;;5060033;28;20051;-88
2021/03/04 07:07:25;;;;;;;46.67;20.50;;;5.40;85.60;;;;;;5048420;28;20051;-86
2021/03/04 07:09:56;;;;;;;47.53;21.03;;;5.40;85.70;;;;;;5046008;28;20029;-85
2021/03/04 07:12:23;;;;;;;43.27;19.43;;;5.50;86.30;;;;;;5046284;28;20033;-86
2021/03/04 07:14:50;;;;;;;45.27;19.23;;;5.50;85.40;;;;;;5064692;28;20031;-86
2021/03/04 07:17:17;;;;;;;42.63;18.10;;;5.50;85.70;;;;;;5045546;28;20029;-89
2021/03/04 07:19:49;;;;;;;39.87;18.30;;;5.50;85.50;;;;;;5062060;28;20512;-86
2021/03/04 07:22:15;;;;;;;41.60;18.33;;;5.40;85.60;;;;;;5040239;28;20060;-87
2021/03/04 07:24:41;;;;;;;37.50;16.87;;;5.40;85.80;;;;;;5061605;28;20021;-87
2021/03/04 07:27:08;;;;;;;34.57;15.63;;;5.40;85.90;;;;;;5060115;28;20036;-87
2021/03/04 07:29:34;;;;;;;39.47;16.10;;;5.30;85.90;;;;;;5045868;28;20025;-86
2021/03/04 07:32:05;;;;;;;34.73;14.40;;;5.30;86.00;;;;;;5050144;28;20025;-85
2021/03/04 07:34:34;;;;;;;36.10;15.53;;;5.30;86.00;;;;;;5059779;28;20606;-88
2021/03/04 07:37:01;;;;;;;34.42;15.10;;;5.30;86.10;;;;;;5033378;28;20450;-88
2021/03/04 07:39:28;;;;;;;36.70;15.90;;;5.30;86.20;;;;;;5025179;28;20029;-85
2021/03/04 07:41:54;;;;;;;37.77;15.93;;;5.20;86.10;;;;;;5023184;28;20442;-89
2021/03/04 07:44:38;;;;;;;33.17;15.80;;;5.20;86.10;;;;;;5042255;28;20014;-88
2021/03/04 07:47:07;;;;;;;31.50;13.87;;;5.30;86.10;;;;;;5022945;28;20025;-86
2021/03/04 07:49:33;;;;;;;;;;;5.30;86.00;;;;;;5047978;28;20025;-89
2021/03/04 07:52:06;;;;;;;36.83;14.73;;;5.30;86.00;;;;;;5036202;28;20275;-87
2021/03/04 07:54:33;;;;;;;31.87;14.53;;;5.30;85.80;;;;;;5030426;28;20060;-87
2021/03/04 07:57:11;;;;;;;33.57;14.93;;;5.30;85.80;;;;;;5041686;28;20028;-85
2021/03/04 08:00:03;;;;;;;30.67;13.48;;;5.30;85.90;;;;;;5028473;28;20116;-86
2021/03/04 08:02:38;;;;;;;29.77;13.67;;;5.30;86.00;;;;;;5040221;28;20107;-87
2021/03/04 08:05:44;;;;;;;28.50;12.93;;;5.30;85.80;;;;;;5029185;28;20042;-88
2021/03/04 08:08:17;;;;;;;29.63;12.77;;;5.30;85.70;;;;;;5030486;28;20093;-86
2021/03/04 08:10:54;;;;;;;30.43;13.33;;;5.30;85.90;;;;;;5044518;28;20092;-86
2021/03/04 08:13:38;;;;;;;28.87;13.17;;;5.30;85.70;;;;;;5062806;28;20033;-88
2021/03/04 08:16:13;;;;;;;29.73;13.07;;;5.20;85.70;;;;;;5040160;28;20052;-82
2021/03/04 08:18:40;;;;;;;28.23;12.70;;;5.20;85.80;;;;;;5043921;28;20119;-84
2021/03/04 08:21:07;;;;;;;29.70;12.87;;;5.20;85.80;;;;;;5036869;28;20032;-82
2021/03/04 08:23:41;;;;;;;29.23;13.13;;;5.30;85.80;;;;;;5022828;28;20037;-84
2021/03/04 08:26:08;;;;;;;29.97;12.47;;;5.30;85.60;;;;;;5036963;28;20025;-90
2021/03/04 08:28:35;;;;;;;28.50;12.57;;;5.20;85.80;;;;;;5027120;28;20025;-90
2021/03/04 08:31:07;;;;;;;27.83;12.27;;;5.20;85.70;;;;;;5045095;28;20028;-90
2021/03/04 08:33:35;;;;;;;28.83;13.10;;;5.10;86.20;;;;;;5053496;28;20389;-88
2021/03/04 08:36:02;;;;;;;29.53;12.93;;;5.10;86.00;;;;;;5049661;28;20061;-89
2021/03/04 08:38:37;;;;;;;29.90;13.03;;;5.10;86.00;;;;;;5049956;28;20044;-89
2021/03/04 08:41:02;;;;;;;29.63;13.87;;;5.10;86.00;;;;;;5055378;28;20988;-87
2021/03/04 08:43:29;;;;;;;33.43;14.03;;;5.10;86.20;;;;;;5075730;28;20035;-88
2021/03/04 08:46:03;;;;;;;33.30;14.20;;;5.10;86.10;;;;;;5079720;28;20040;-87
2021/03/04 08:48:29;;;;;;;31.90;14.40;;;5.00;86.30;;;;;;5080409;28;20080;-89
2021/03/04 08:51:03;;;;;;;29.17;13.37;;;5.00;86.30;;;;;;5079231;28;20051;-84
2021/03/04 08:53:34;;;;;;;33.17;13.30;;;5.00;86.30;;;;;;5079998;28;20051;-88
2021/03/04 08:56:04;;;;;;;33.27;14.63;;;5.00;86.40;;;;;;5070959;28;20165;-81
2021/03/04 08:58:32;;;;;;;28.40;12.30;;;5.10;86.40;;;;;;5042738;28;20030;-84
2021/03/04 09:01:00;;;;;;;31.20;12.17;;;5.10;86.30;;;;;;5019454;28;20081;-79
2021/03/04 09:03:28;;;;;;;29.80;13.67;;;5.10;86.30;;;;;;5053028;28;20093;-79
2021/03/04 09:06:08;;;;;;;28.60;13.17;;;5.10;86.20;;;;;;5067229;28;20005;-88
2021/03/04 09:08:39;;;;;;;26.97;12.27;;;5.10;86.30;;;;;;5042615;28;20014;-89
2021/03/04 09:11:06;;;;;;;29.57;13.20;;;5.10;86.20;;;;;;5062658;28;20013;-88
2021/03/04 09:13:32;;;;;;;31.10;13.57;;;5.10;86.30;;;;;;5084553;28;20029;-90
2021/03/04 09:16:06;;;;;;;29.53;12.97;;;5.00;86.50;;;;;;5067141;28;20029;-89
2021/03/04 09:18:41;;;;;;;27.23;11.93;;;5.00;86.50;;;;;;5066318;28;20031;-86
2021/03/04 09:21:12;;;;;;;27.57;11.17;;;5.00;86.40;;;;;;5057049;28;20097;-84
2021/03/04 09:23:38;;;;;;;25.63;10.30;;;5.00;86.30;;;;;;5066546;28;20059;-83
2021/03/04 09:26:04;;;;;;;27.57;11.63;;;5.10;86.20;;;;;;5081316;28;20047;-87
2021/03/04 09:28:30;;;;;;;25.27;11.50;;;5.10;86.30;;;;;;5045562;28;20053;-88
2021/03/04 09:30:56;;;;;;;24.80;10.50;;;5.00;86.30;;;;;;5045378;28;20037;-84
2021/03/04 09:33:23;;;;;;;27.73;11.33;;;5.00;86.30;;;;;;5065526;28;20044;-87
2021/03/04 09:36:03;;;;;;;25.33;10.27;;;5.10;86.30;;;;;;5064948;28;20444;-86
2021/03/04 09:38:31;;;;;;;23.70;9.47;;;5.00;86.40;;;;;;5062060;28;20025;-85
2021/03/04 09:41:10;;;;;;;23.13;9.87;;;5.00;86.50;;;;;;5037725;28;20040;-84
2021/03/04 09:43:45;;;;;;;25.08;9.25;;;5.00;86.60;;;;;;5039387;28;20029;-85
2021/03/04 09:46:12;;;;;;;20.70;7.80;;;5.00;86.50;;;;;;5061169;28;20025;-85
2021/03/04 09:48:39;;;;;;;24.47;9.00;;;4.90;86.70;;;;;;5046375;28;20025;-83
2021/03/04 09:51:06;;;;;;;23.40;8.53;;;4.90;86.60;;;;;;5048691;28;20032;-84
2021/03/04 09:53:45;;;;;;;23.87;8.97;;;4.90;86.60;;;;;;5067767;28;20385;-85
2021/03/04 09:56:10;;;;;;;23.67;9.63;;;5.00;86.40;;;;;;5050443;28;20033;-86
2021/03/04 09:58:42;;;;;;;25.03;9.60;;;5.00;86.40;;;;;;5066211;28;20044;-86
2021/03/04 10:01:08;;;;;;;22.07;8.57;;;5.00;86.30;;;;;;5047078;28;20469;-85
2021/03/04 10:03:39;;;;;;;24.93;10.87;;;5.00;86.40;;;;;;5048940;28;20028;-84
2021/03/04 10:06:07;;;;;;;23.93;10.47;;;5.00;86.30;;;;;;5058719;28;20544;-86
2021/03/04 10:08:40;;;;;;;24.23;10.93;;;5.00;86.40;;;;;;5057700;28;20084;-85
2021/03/04 10:11:06;;;;;;;25.70;9.70;;;5.10;86.20;;;;;;5046534;28;20037;-84
2021/03/04 10:13:34;;;;;;;23.50;8.53;;;5.10;86.20;;;;;;5047275;28;20037;-85
2021/03/04 10:16:12;;;;;;;24.00;8.83;;;5.10;86.30;;;;;;5052168;28;20024;-85
2021/03/04 10:18:41;;;;;;;20.95;9.13;;;5.00;86.20;;;;;;5067227;28;20028;-84
2021/03/04 10:21:08;;;;;;;22.08;8.10;;;5.00;86.10;;;;;;5066062;28;20040;-85
2021/03/04 10:23:35;;;;;;;21.70;8.03;;;5.10;86.20;;;;;;5066326;28;20478;-85
2021/03/04 10:26:01;;;;;;;21.43;8.20;;;5.00;86.10;;;;;;5036984;28;20083;-66
2021/03/04 10:28:30;;;;;;;23.40;7.83;;;5.00;86.40;;;;;;5049027;28;20036;-64
2021/03/04 10:30:56;;;;;;;21.25;8.23;;;5.10;86.30;;;;;;5050870;28;20040;-67
2021/03/04 10:33:22;;;;;;;19.80;6.73;;;5.10;86.20;;;;;;5062388;28;20044;-84
2021/03/04 10:35:48;;;;;;;19.03;7.87;;;5.20;85.90;;;;;;5050395;28;20084;-89
2021/03/04 10:38:13;;;;;;;20.23;7.50;;;5.30;85.70;;;;;;5050695;28;20101;-87
2021/03/04 10:40:39;;;;;;;21.53;7.63;;;5.30;85.60;;;;;;5050948;28;20040;-86
2021/03/04 10:43:05;;;;;;;20.00;7.33;;;5.30;85.60;;;;;;5069768;28;20129;-81
2021/03/04 10:45:31;;;;;;;21.03;8.10;;;5.30;86.10;;;;;;5068545;28;20021;-88
2021/03/04 10:47:56;;;;;;;19.73;6.93;;;5.30;85.40;;;;;;5049653;28;20029;-84
2021/03/04 10:50:27;;;;;;;19.00;7.07;;;5.30;85.30;;;;;;5047333;28;20037;-90
2021/03/04 10:52:53;;;;;;;20.80;8.10;;;5.30;85.40;;;;;;5065679;28;20075;-84
2021/03/04 10:55:18;;;;;;;21.60;8.30;;;5.40;85.40;;;;;;5065971;28;20025;-87
2021/03/04 10:57:44;;;;;;;22.77;8.47;;;5.40;85.40;;;;;;5067555;28;20021;-85
2021/03/04 11:00:11;;;;;;;23.70;9.23;;;5.30;85.40;;;;;;5045411;28;20033;-88
2021/03/04 11:02:37;;;;;;;25.00;11.60;;;5.30;85.60;;;;;;5044471;28;20108;-88
2021/03/04 11:05:04;;;;;;;20.93;8.60;;;5.30;85.60;;;;;;5040931;28;20037;-71
2021/03/04 11:07:30;;;;;;;19.77;8.80;;;5.30;85.70;;;;;;5054104;28;20400;-69
2021/03/04 11:09:56;;;;;;;21.10;7.90;;;5.30;85.70;;;;;;5062232;28;20036;-69
2021/03/04 11:12:21;;;;;;;20.47;8.03;;;5.30;85.70;;;;;;5053782;28;20024;-72
2021/03/04 11:14:47;;;;;;;20.33;7.80;;;5.40;85.70;;;;;;5070921;28;20367;-72
2021/03/04 11:17:14;;;;;;;19.03;7.57;;;5.40;86.00;;;;;;5073399;28;20478;-69
2021/03/04 11:19:41;;;;;;;20.37;8.10;;;5.30;85.80;;;;;;5056761;28;20045;-74
2021/03/04 11:22:06;;;;;;;22.13;8.63;;;5.30;85.70;;;;;;5053939;28;20040;-70
2021/03/04 11:24:32;;;;;;;21.03;8.07;;;5.40;85.80;;;;;;5056297;28;20033;-87
2021/03/04 11:26:58;;;;;;;18.63;7.47;;;5.30;86.10;;;;;;5058854;28;20043;-88
2021/03/04 11:29:23;;;;;;;19.57;8.30;;;5.30;86.00;;;;;;5079747;28;20084;-87
2021/03/04 11:31:49;;;;;;;20.20;7.47;;;5.30;86.20;;;;;;5058695;28;20083;-89
2021/03/04 11:34:15;;;;;;;19.57;7.00;;;5.20;86.20;;;;;;5041740;28;20437;-88
2021/03/04 11:36:41;;;;;;;20.50;7.77;;;5.30;86.30;;;;;;5054414;28;20045;-89
2021/03/04 11:39:06;;;;;;;19.60;7.80;;;5.20;86.40;;;;;;5060874;28;20126;-86
2021/03/04 11:41:33;;;;;;;20.03;7.27;;;5.10;86.80;;;;;;5045639;28;20504;-90
2021/03/04 11:43:58;;;;;;;18.53;7.43;;;5.00;87.00;;;;;;5042099;28;20108;-88
2021/03/04 11:46:25;;;;;;;20.80;7.70;;;5.00;87.10;;;;;;5042561;28;20066;-87
2021/03/04 11:48:51;;;;;;;19.60;7.70;;;5.00;87.00;;;;;;5042987;28;20024;-87
2021/03/04 11:51:17;;;;;;;20.43;8.17;;;5.00;86.90;;;;;;5043655;28;20048;-87
2021/03/04 11:53:43;;;;;;;20.80;7.50;;;5.10;86.80;;;;;;5054780;22;20433;-88
2021/03/04 11:56:09;;;;;;;22.33;7.37;;;5.10;86.80;;;;;;5054346;28;20024;-90
2021/03/04 11:58:36;;;;;;;21.07;8.33;;;5.10;86.70;;;;;;5059031;28;20120;-88
2021/03/04 12:01:01;;;;;;;20.33;7.83;;;5.10;86.70;;;;;;5059140;28;20509;-88
2021/03/04 12:03:27;;;;;;;21.13;7.80;;;5.10;86.60;;;;;;5058399;28;20016;-88
2021/03/04 12:05:52;;;;;;;20.33;7.77;;;5.10;86.40;;;;;;5059685;28;20065;-88
2021/03/04 12:08:18;;;;;;;19.67;7.63;;;5.20;86.30;;;;;;5078685;28;20104;-87
2021/03/04 12:10:44;;;;;;;23.87;8.63;;;5.20;86.30;;;;;;5060832;28;20117;-86
2021/03/04 12:13:10;;;;;;;22.13;8.07;;;5.20;86.20;;;;;;5054963;28;20413;-88
2021/03/04 12:15:37;;;;;;;22.27;8.53;;;5.20;86.20;;;;;;5076128;28;20434;-87
2021/03/04 12:18:03;;;;;;;20.80;8.37;;;5.20;86.30;;;;;;5057687;28;20029;-88
2021/03/04 12:20:28;;;;;;;22.53;8.37;;;5.20;86.50;;;;;;5058713;28;20028;-86
2021/03/04 12:22:54;;;;;;;21.87;8.37;;;5.20;86.40;;;;;;5060503;28;20021;-82
2021/03/04 12:25:20;;;;;;;26.00;9.00;;;5.20;86.40;;;;;;5082340;28;20474;-83
2021/03/04 12:27:45;;;;;;;22.37;8.63;;;5.20;86.30;;;;;;5065744;28;20067;-85
2021/03/04 12:30:12;;;;;;;22.10;8.33;;;5.20;86.90;;;;;;5063364;28;20043;-84
2021/03/04 12:32:39;;;;;;;22.90;8.73;;;5.30;86.00;;;;;;5082580;28;20028;-87
2021/03/04 12:35:06;;;;;;;20.87;8.63;;;5.20;86.10;;;;;;5077984;28;20025;-88
2021/03/04 12:37:31;;;;;;;21.97;8.50;;;5.30;86.40;;;;;;5060727;28;20024;-88
2021/03/04 12:39:57;;;;;;;22.73;8.33;;;5.30;86.00;;;;;;5061041;28;20112;-87
2021/03/04 12:42:23;;;;;;;22.27;8.37;;;5.30;85.90;;;;;;5078950;28;20170;-88
2021/03/04 12:44:49;;;;;;;25.60;8.90;;;5.30;85.90;;;;;;5065414;28;20061;-86